TimeMDT,TemperatureF,Dew PointF,Humidity,Sea Level PressureIn,VisibilityMPH,Wind Direction,Wind SpeedMPH,Gust SpeedMPH,PrecipitationIn,Events,Conditions,WindDirDegrees,DateUTC
12:53 AM,46.9,19.9,34,29.75,10.0,West,9.2,-,N/A,,Clear,280,2012-10-21 06:53:00
1:53 AM,48.0,19.9,33,29.74,10.0,WNW,13.8,-,N/A,,Clear,290,2012-10-21 07:53:00
2:53 AM,44.1,21.0,40,29.77,10.0,WNW,12.7,-,N/A,,Clear,290,2012-10-21 08:53:00
3:53 AM,48.0,23.0,37,29.75,10.0,WNW,16.1,-,N/A,,Clear,290,2012-10-21 09:53:00
4:53 AM,48.9,28.0,44,29.76,10.0,WNW,17.3,-,N/A,,Clear,290,2012-10-21 10:53:00
5:53 AM,48.0,28.9,48,29.79,10.0,WNW,19.6,-,N/A,,Clear,290,2012-10-21 11:53:00
6:53 AM,46.9,30.0,52,29.84,10.0,WNW,18.4,-,N/A,,Clear,290,2012-10-21 12:53:00
7:53 AM,50.0,32.0,50,29.86,10.0,West,15.0,-,N/A,,Clear,280,2012-10-21 13:53:00
9:53 AM,57.9,33.1,39,29.87,10.0,WNW,23.0,-,N/A,,Clear,290,2012-10-21 15:53:00
11:53 AM,64.9,30.0,27,29.82,10.0,West,26.5,34.5,N/A,,Clear,280,2012-10-21 17:53:00
12:53 PM,66.9,28.9,24,29.81,10.0,West,25.3,36.8,N/A,,Clear,280,2012-10-21 18:53:00
1:53 PM,66.9,30.0,25,29.78,10.0,West,28.8,36.8,N/A,,Clear,280,2012-10-21 19:53:00
2:53 PM,66.9,30.9,26,29.79,10.0,West,25.3,35.7,N/A,,Clear,270,2012-10-21 20:53:00
3:53 PM,68.0,26.1,21,29.78,10.0,West,20.7,36.8,N/A,,Clear,280,2012-10-21 21:53:00
4:53 PM,68.0,27.0,21,29.78,10.0,West,19.6,26.5,N/A,,Clear,280,2012-10-21 22:53:00
5:53 PM,64.9,27.0,24,29.80,10.0,West,16.1,-,N/A,,Clear,270,2012-10-21 23:53:00
6:53 PM,55.0,26.1,33,29.86,10.0,West,10.4,-,N/A,,Clear,260,2012-10-22 00:53:00
7:53 PM,52.0,26.1,37,29.87,10.0,WSW,10.4,-,N/A,,Clear,250,2012-10-22 01:53:00
8:53 PM,52.0,27.0,38,29.86,10.0,WSW,9.2,-,N/A,,Clear,250,2012-10-22 02:53:00
9:53 PM,57.0,28.9,34,29.82,10.0,SW,16.1,-,N/A,,Partly Cloudy,220,2012-10-22 03:53:00
10:53 PM,55.9,28.9,36,29.80,10.0,SW,21.9,31.1,N/A,,Clear,230,2012-10-22 04:53:00
11:53 PM,54.0,30.0,40,29.80,10.0,SW,21.9,-,N/A,,Clear,230,2012-10-22 05:53:00